sensor_id;sensor_type;location;lat;lon;timestamp;P1;durP1;ratioP1;P2;durP2;ratioP2
26600;SDS011;14241;49.260;10.496;2024-01-06T00:01:57;14.75;;;6.63;;
26600;SDS011;14241;49.260;10.496;2024-01-06T00:04:23;8.10;;;6.30;;
26600;SDS011;14241;49.260;10.496;2024-01-06T00:06:48;8.30;;;6.30;;
26600;SDS011;14241;49.260;10.496;2024-01-06T00:09:13;7.90;;;5.65;;
26600;SDS011;14241;49.260;10.496;2024-01-06T00:11:39;9.10;;;6.57;;
26600;SDS011;14241;49.260;10.496;2024-01-06T00:14:04;9.35;;;5.80;;
26600;SDS011;14241;49.260;10.496;2024-01-06T00:16:29;8.75;;;5.88;;
26600;SDS011;14241;49.260;10.496;2024-01-06T00:18:54;8.05;;;5.68;;
26600;SDS011;14241;49.260;10.496;2024-01-06T00:21:20;9.98;;;6.32;;
26600;SDS011;14241;49.260;10.496;2024-01-06T00:23:45;8.80;;;5.82;;
26600;SDS011;14241;49.260;10.496;2024-01-06T00:26:10;7.78;;;5.88;;
26600;SDS011;14241;49.260;10.496;2024-01-06T00:28:36;9.55;;;5.72;;
26600;SDS011;14241;49.260;10.496;2024-01-06T00:31:01;9.98;;;6.32;;
26600;SDS011;14241;49.260;10.496;2024-01-06T00:33:26;8.93;;;7.25;;
26600;SDS011;14241;49.260;10.496;2024-01-06T00:35:52;10.13;;;7.45;;
26600;SDS011;14241;49.260;10.496;2024-01-06T00:38:17;10.20;;;7.90;;
26600;SDS011;14241;49.260;10.496;2024-01-06T00:40:42;13.57;;;7.70;;
26600;SDS011;14241;49.260;10.496;2024-01-06T00:43:07;9.55;;;6.97;;
26600;SDS011;14241;49.260;10.496;2024-01-06T00:45:33;10.50;;;6.20;;
26600;SDS011;14241;49.260;10.496;2024-01-06T00:47:58;13.45;;;7.38;;
26600;SDS011;14241;49.260;10.496;2024-01-06T00:50:23;11.75;;;7.95;;
26600;SDS011;14241;49.260;10.496;2024-01-06T00:52:49;10.70;;;7.90;;
26600;SDS011;14241;49.260;10.496;2024-01-06T00:55:18;12.70;;;8.40;;
26600;SDS011;14241;49.260;10.496;2024-01-06T00:57:43;11.15;;;7.82;;
26600;SDS011;14241;49.260;10.496;2024-01-06T01:00:08;14.40;;;8.18;;
26600;SDS011;14241;49.260;10.496;2024-01-06T01:02:34;11.15;;;7.38;;
26600;SDS011;14241;49.260;10.496;2024-01-06T01:04:59;11.00;;;7.65;;
26600;SDS011;14241;49.260;10.496;2024-01-06T01:07:24;12.90;;;8.50;;
26600;SDS011;14241;49.260;10.496;2024-01-06T01:09:50;10.32;;;8.20;;
26600;SDS011;14241;49.260;10.496;2024-01-06T01:12:15;14.25;;;8.55;;
26600;SDS011;14241;49.260;10.496;2024-01-06T01:14:40;13.23;;;9.05;;
26600;SDS011;14241;49.260;10.496;2024-01-06T01:17:05;12.35;;;8.70;;
26600;SDS011;14241;49.260;10.496;2024-01-06T01:19:31;13.35;;;8.70;;
26600;SDS011;14241;49.260;10.496;2024-01-06T01:21:56;14.70;;;10.18;;
26600;SDS011;14241;49.260;10.496;2024-01-06T01:24:22;13.95;;;9.93;;
26600;SDS011;14241;49.260;10.496;2024-01-06T01:26:48;14.40;;;9.10;;
26600;SDS011;14241;49.260;10.496;2024-01-06T01:29:13;12.48;;;8.38;;
26600;SDS011;14241;49.260;10.496;2024-01-06T01:31:38;14.05;;;8.05;;
26600;SDS011;14241;49.260;10.496;2024-01-06T01:34:03;10.68;;;7.68;;
26600;SDS011;14241;49.260;10.496;2024-01-06T01:36:29;12.20;;;7.47;;
26600;SDS011;14241;49.260;10.496;2024-01-06T01:38:54;12.15;;;7.05;;
26600;SDS011;14241;49.260;10.496;2024-01-06T01:41:19;10.45;;;6.75;;
26600;SDS011;14241;49.260;10.496;2024-01-06T01:43:45;10.40;;;7.05;;
26600;SDS011;14241;49.260;10.496;2024-01-06T01:46:10;10.77;;;6.97;;
26600;SDS011;14241;49.260;10.496;2024-01-06T01:48:35;11.75;;;6.97;;
26600;SDS011;14241;49.260;10.496;2024-01-06T01:51:01;11.85;;;6.72;;
26600;SDS011;14241;49.260;10.496;2024-01-06T01:53:26;12.30;;;7.88;;
26600;SDS011;14241;49.260;10.496;2024-01-06T01:55:51;12.68;;;7.50;;
26600;SDS011;14241;49.260;10.496;2024-01-06T01:58:17;13.32;;;7.38;;
26600;SDS011;14241;49.260;10.496;2024-01-06T02:00:43;12.13;;;7.38;;
26600;SDS011;14241;49.260;10.496;2024-01-06T02:03:08;8.57;;;6.72;;
26600;SDS011;14241;49.260;10.496;2024-01-06T02:05:34;9.52;;;6.40;;
26600;SDS011;14241;49.260;10.496;2024-01-06T02:07:59;9.90;;;6.65;;
26600;SDS011;14241;49.260;10.496;2024-01-06T02:10:24;9.52;;;7.10;;
26600;SDS011;14241;49.260;10.496;2024-01-06T02:12:50;11.18;;;6.78;;
26600;SDS011;14241;49.260;10.496;2024-01-06T02:15:17;9.40;;;6.68;;
26600;SDS011;14241;49.260;10.496;2024-01-06T02:17:42;10.05;;;6.60;;
26600;SDS011;14241;49.260;10.496;2024-01-06T02:20:08;9.55;;;6.45;;
26600;SDS011;14241;49.260;10.496;2024-01-06T02:22:35;9.82;;;6.78;;
26600;SDS011;14241;49.260;10.496;2024-01-06T02:25:00;7.75;;;6.63;;
26600;SDS011;14241;49.260;10.496;2024-01-06T02:27:26;11.20;;;6.93;;
26600;SDS011;14241;49.260;10.496;2024-01-06T02:29:51;10.43;;;7.05;;
26600;SDS011;14241;49.260;10.496;2024-01-06T02:32:16;11.38;;;6.93;;
26600;SDS011;14241;49.260;10.496;2024-01-06T02:34:42;10.73;;;6.78;;
26600;SDS011;14241;49.260;10.496;2024-01-06T02:37:07;9.65;;;6.97;;
26600;SDS011;14241;49.260;10.496;2024-01-06T02:39:32;7.90;;;6.30;;
26600;SDS011;14241;49.260;10.496;2024-01-06T02:41:57;13.50;;;6.93;;
26600;SDS011;14241;49.260;10.496;2024-01-06T02:44:23;10.45;;;6.15;;
26600;SDS011;14241;49.260;10.496;2024-01-06T02:46:48;7.93;;;6.32;;
26600;SDS011;14241;49.260;10.496;2024-01-06T02:49:13;8.55;;;6.28;;
26600;SDS011;14241;49.260;10.496;2024-01-06T02:51:39;11.50;;;6.85;;
26600;SDS011;14241;49.260;10.496;2024-01-06T02:54:04;10.52;;;6.65;;
26600;SDS011;14241;49.260;10.496;2024-01-06T02:56:29;9.98;;;7.15;;
26600;SDS011;14241;49.260;10.496;2024-01-06T02:58:54;10.75;;;7.22;;
26600;SDS011;14241;49.260;10.496;2024-01-06T03:01:20;12.77;;;7.10;;
26600;SDS011;14241;49.260;10.496;2024-01-06T03:03:45;14.40;;;7.95;;
26600;SDS011;14241;49.260;10.496;2024-01-06T03:06:10;14.00;;;7.43;;
26600;SDS011;14241;49.260;10.496;2024-01-06T03:08:36;12.02;;;7.47;;
26600;SDS011;14241;49.260;10.496;2024-01-06T03:11:01;10.45;;;7.28;;
26600;SDS011;14241;49.260;10.496;2024-01-06T03:13:28;11.30;;;7.72;;
26600;SDS011;14241;49.260;10.496;2024-01-06T03:15:54;15.40;;;7.35;;
26600;SDS011;14241;49.260;10.496;2024-01-06T03:18:19;10.80;;;7.43;;
26600;SDS011;14241;49.260;10.496;2024-01-06T03:20:44;11.70;;;7.75;;
26600;SDS011;14241;49.260;10.496;2024-01-06T03:23:10;14.20;;;7.32;;
26600;SDS011;14241;49.260;10.496;2024-01-06T03:25:35;9.25;;;7.45;;
26600;SDS011;14241;49.260;10.496;2024-01-06T03:28:00;11.38;;;7.68;;
26600;SDS011;14241;49.260;10.496;2024-01-06T03:30:26;13.02;;;7.45;;
26600;SDS011;14241;49.260;10.496;2024-01-06T03:32:51;10.50;;;7.25;;
26600;SDS011;14241;49.260;10.496;2024-01-06T03:35:16;17.80;;;7.85;;
26600;SDS011;14241;49.260;10.496;2024-01-06T03:37:41;9.85;;;7.70;;
26600;SDS011;14241;49.260;10.496;2024-01-06T03:40:07;14.10;;;7.63;;
26600;SDS011;14241;49.260;10.496;2024-01-06T03:42:33;12.40;;;7.82;;
26600;SDS011;14241;49.260;10.496;2024-01-06T03:44:58;11.82;;;7.65;;
26600;SDS011;14241;49.260;10.496;2024-01-06T03:47:23;12.98;;;8.38;;
26600;SDS011;14241;49.260;10.496;2024-01-06T03:49:48;13.27;;;8.73;;
26600;SDS011;14241;49.260;10.496;2024-01-06T03:52:14;13.77;;;8.35;;
26600;SDS011;14241;49.260;10.496;2024-01-06T03:54:39;15.02;;;8.93;;
26600;SDS011;14241;49.260;10.496;2024-01-06T03:57:04;11.02;;;9.10;;
26600;SDS011;14241;49.260;10.496;2024-01-06T03:59:30;12.40;;;8.55;;
26600;SDS011;14241;49.260;10.496;2024-01-06T04:01:55;12.88;;;8.52;;
26600;SDS011;14241;49.260;10.496;2024-01-06T04:04:21;13.63;;;8.68;;
26600;SDS011;14241;49.260;10.496;2024-01-06T04:06:46;14.68;;;8.90;;
26600;SDS011;14241;49.260;10.496;2024-01-06T04:09:11;15.18;;;9.43;;
26600;SDS011;14241;49.260;10.496;2024-01-06T04:11:37;12.25;;;9.20;;
26600;SDS011;14241;49.260;10.496;2024-01-06T04:14:02;13.30;;;8.93;;
26600;SDS011;14241;49.260;10.496;2024-01-06T04:16:27;12.30;;;9.40;;
26600;SDS011;14241;49.260;10.496;2024-01-06T04:18:53;11.52;;;8.95;;
26600;SDS011;14241;49.260;10.496;2024-01-06T04:21:18;12.98;;;9.00;;
26600;SDS011;14241;49.260;10.496;2024-01-06T04:23:43;17.08;;;8.05;;
26600;SDS011;14241;49.260;10.496;2024-01-06T04:26:08;12.77;;;8.88;;
26600;SDS011;14241;49.260;10.496;2024-01-06T04:28:34;12.40;;;8.90;;
26600;SDS011;14241;49.260;10.496;2024-01-06T04:30:59;11.23;;;8.65;;
26600;SDS011;14241;49.260;10.496;2024-01-06T04:33:24;12.57;;;8.48;;
26600;SDS011;14241;49.260;10.496;2024-01-06T04:35:49;10.25;;;8.25;;
26600;SDS011;14241;49.260;10.496;2024-01-06T04:38:15;9.23;;;7.95;;
26600;SDS011;14241;49.260;10.496;2024-01-06T04:40:40;10.55;;;7.30;;
26600;SDS011;14241;49.260;10.496;2024-01-06T04:43:06;9.27;;;7.43;;
26600;SDS011;14241;49.260;10.496;2024-01-06T04:45:31;8.95;;;7.22;;
26600;SDS011;14241;49.260;10.496;2024-01-06T04:47:56;11.02;;;7.32;;
26600;SDS011;14241;49.260;10.496;2024-01-06T04:50:21;10.73;;;7.65;;
26600;SDS011;14241;49.260;10.496;2024-01-06T04:52:48;15.75;;;8.32;;
26600;SDS011;14241;49.260;10.496;2024-01-06T04:55:13;10.15;;;8.43;;
26600;SDS011;14241;49.260;10.496;2024-01-06T04:57:38;8.82;;;7.93;;
26600;SDS011;14241;49.260;10.496;2024-01-06T05:00:04;12.57;;;8.30;;
26600;SDS011;14241;49.260;10.496;2024-01-06T05:02:29;10.13;;;8.27;;
26600;SDS011;14241;49.260;10.496;2024-01-06T05:04:55;9.95;;;8.02;;
26600;SDS011;14241;49.260;10.496;2024-01-06T05:07:20;11.63;;;8.98;;
26600;SDS011;14241;49.260;10.496;2024-01-06T05:09:46;16.20;;;10.00;;
26600;SDS011;14241;49.260;10.496;2024-01-06T05:12:11;13.05;;;9.32;;
26600;SDS011;14241;49.260;10.496;2024-01-06T05:14:36;13.70;;;8.95;;
26600;SDS011;14241;49.260;10.496;2024-01-06T05:17:01;15.10;;;9.50;;
26600;SDS011;14241;49.260;10.496;2024-01-06T05:19:27;14.70;;;9.25;;
26600;SDS011;14241;49.260;10.496;2024-01-06T05:21:52;14.02;;;10.00;;
26600;SDS011;14241;49.260;10.496;2024-01-06T05:24:17;13.13;;;9.40;;
26600;SDS011;14241;49.260;10.496;2024-01-06T05:26:43;16.50;;;9.88;;
26600;SDS011;14241;49.260;10.496;2024-01-06T05:29:08;11.80;;;8.98;;
26600;SDS011;14241;49.260;10.496;2024-01-06T05:31:33;12.15;;;9.45;;
26600;SDS011;14241;49.260;10.496;2024-01-06T05:33:58;11.60;;;9.27;;
26600;SDS011;14241;49.260;10.496;2024-01-06T05:36:24;14.43;;;10.18;;
26600;SDS011;14241;49.260;10.496;2024-01-06T05:38:49;12.57;;;9.60;;
26600;SDS011;14241;49.260;10.496;2024-01-06T05:41:15;14.63;;;10.85;;
26600;SDS011;14241;49.260;10.496;2024-01-06T05:43:40;16.13;;;10.93;;
26600;SDS011;14241;49.260;10.496;2024-01-06T05:46:06;19.73;;;11.40;;
26600;SDS011;14241;49.260;10.496;2024-01-06T05:48:32;14.68;;;10.45;;
26600;SDS011;14241;49.260;10.496;2024-01-06T05:50:57;20.77;;;10.88;;
26600;SDS011;14241;49.260;10.496;2024-01-06T05:53:24;18.05;;;11.00;;
26600;SDS011;14241;49.260;10.496;2024-01-06T05:55:49;15.27;;;10.80;;
26600;SDS011;14241;49.260;10.496;2024-01-06T05:58:15;16.70;;;11.15;;
26600;SDS011;14241;49.260;10.496;2024-01-06T06:00:41;16.42;;;11.80;;
26600;SDS011;14241;49.260;10.496;2024-01-06T06:03:06;21.77;;;12.70;;
26600;SDS011;14241;49.260;10.496;2024-01-06T06:05:32;19.83;;;12.48;;
26600;SDS011;14241;49.260;10.496;2024-01-06T06:07:58;17.02;;;12.07;;
26600;SDS011;14241;49.260;10.496;2024-01-06T06:10:23;19.35;;;11.70;;
26600;SDS011;14241;49.260;10.496;2024-01-06T06:12:55;21.67;;;12.35;;
26600;SDS011;14241;49.260;10.496;2024-01-06T06:15:20;19.77;;;12.10;;
26600;SDS011;14241;49.260;10.496;2024-01-06T06:17:45;20.58;;;12.65;;
26600;SDS011;14241;49.260;10.496;2024-01-06T06:20:11;21.70;;;12.90;;
26600;SDS011;14241;49.260;10.496;2024-01-06T06:22:36;20.20;;;12.25;;
26600;SDS011;14241;49.260;10.496;2024-01-06T06:25:02;15.98;;;12.15;;
26600;SDS011;14241;49.260;10.496;2024-01-06T06:27:28;19.15;;;12.32;;
26600;SDS011;14241;49.260;10.496;2024-01-06T06:29:54;20.05;;;12.98;;
26600;SDS011;14241;49.260;10.496;2024-01-06T06:32:21;17.85;;;12.13;;
26600;SDS011;14241;49.260;10.496;2024-01-06T06:34:46;16.60;;;11.77;;
26600;SDS011;14241;49.260;10.496;2024-01-06T06:37:11;16.33;;;11.93;;
26600;SDS011;14241;49.260;10.496;2024-01-06T06:39:37;23.58;;;13.35;;
26600;SDS011;14241;49.260;10.496;2024-01-06T06:42:02;20.48;;;11.82;;
26600;SDS011;14241;49.260;10.496;2024-01-06T06:44:28;17.85;;;11.30;;
26600;SDS011;14241;49.260;10.496;2024-01-06T06:46:54;19.27;;;11.75;;
26600;SDS011;14241;49.260;10.496;2024-01-06T06:49:19;20.10;;;11.65;;
26600;SDS011;14241;49.260;10.496;2024-01-06T06:51:45;17.67;;;11.32;;
26600;SDS011;14241;49.260;10.496;2024-01-06T06:54:13;19.08;;;12.18;;
26600;SDS011;14241;49.260;10.496;2024-01-06T06:56:39;21.17;;;12.43;;
26600;SDS011;14241;49.260;10.496;2024-01-06T06:59:05;16.85;;;12.30;;
26600;SDS011;14241;49.260;10.496;2024-01-06T07:01:30;16.83;;;11.25;;
26600;SDS011;14241;49.260;10.496;2024-01-06T07:03:56;17.95;;;12.27;;
26600;SDS011;14241;49.260;10.496;2024-01-06T07:06:21;14.00;;;11.30;;
26600;SDS011;14241;49.260;10.496;2024-01-06T07:08:46;14.07;;;11.07;;
26600;SDS011;14241;49.260;10.496;2024-01-06T07:11:12;18.10;;;11.75;;
26600;SDS011;14241;49.260;10.496;2024-01-06T07:13:40;16.02;;;10.80;;
26600;SDS011;14241;49.260;10.496;2024-01-06T07:16:05;15.07;;;11.23;;
26600;SDS011;14241;49.260;10.496;2024-01-06T07:18:30;19.33;;;11.65;;
26600;SDS011;14241;49.260;10.496;2024-01-06T07:20:56;19.23;;;11.77;;
26600;SDS011;14241;49.260;10.496;2024-01-06T07:23:21;22.48;;;11.73;;
26600;SDS011;14241;49.260;10.496;2024-01-06T07:25:46;17.58;;;11.73;;
26600;SDS011;14241;49.260;10.496;2024-01-06T07:28:11;15.93;;;11.05;;
26600;SDS011;14241;49.260;10.496;2024-01-06T07:30:37;14.60;;;11.75;;
26600;SDS011;14241;49.260;10.496;2024-01-06T07:33:02;19.50;;;12.05;;
26600;SDS011;14241;49.260;10.496;2024-01-06T07:35:28;18.70;;;11.70;;
26600;SDS011;14241;49.260;10.496;2024-01-06T07:37:54;16.25;;;11.52;;
26600;SDS011;14241;49.260;10.496;2024-01-06T07:40:19;19.63;;;12.13;;
26600;SDS011;14241;49.260;10.496;2024-01-06T07:42:44;19.33;;;11.70;;
26600;SDS011;14241;49.260;10.496;2024-01-06T07:45:09;16.80;;;12.07;;
26600;SDS011;14241;49.260;10.496;2024-01-06T07:47:35;16.83;;;12.38;;
26600;SDS011;14241;49.260;10.496;2024-01-06T07:50:00;17.77;;;11.20;;
26600;SDS011;14241;49.260;10.496;2024-01-06T07:52:25;16.20;;;11.77;;
26600;SDS011;14241;49.260;10.496;2024-01-06T07:54:51;16.80;;;10.88;;
26600;SDS011;14241;49.260;10.496;2024-01-06T07:57:16;20.02;;;11.05;;
26600;SDS011;14241;49.260;10.496;2024-01-06T07:59:41;16.88;;;11.02;;
26600;SDS011;14241;49.260;10.496;2024-01-06T08:02:06;20.88;;;11.70;;
26600;SDS011;14241;49.260;10.496;2024-01-06T08:04:32;14.85;;;10.95;;
26600;SDS011;14241;49.260;10.496;2024-01-06T08:06:57;14.18;;;10.75;;
26600;SDS011;14241;49.260;10.496;2024-01-06T08:09:22;16.08;;;11.38;;
26600;SDS011;14241;49.260;10.496;2024-01-06T08:11:51;17.75;;;11.30;;
26600;SDS011;14241;49.260;10.496;2024-01-06T08:14:16;17.60;;;11.48;;
26600;SDS011;14241;49.260;10.496;2024-01-06T08:16:42;15.73;;;11.27;;
26600;SDS011;14241;49.260;10.496;2024-01-06T08:19:08;16.40;;;12.02;;
26600;SDS011;14241;49.260;10.496;2024-01-06T08:21:33;21.20;;;11.32;;
26600;SDS011;14241;49.260;10.496;2024-01-06T08:23:59;15.68;;;11.95;;
26600;SDS011;14241;49.260;10.496;2024-01-06T08:26:25;17.42;;;12.75;;
26600;SDS011;14241;49.260;10.496;2024-01-06T08:28:50;16.20;;;11.43;;
26600;SDS011;14241;49.260;10.496;2024-01-06T08:31:15;18.08;;;12.40;;
26600;SDS011;14241;49.260;10.496;2024-01-06T08:33:41;17.60;;;11.43;;
26600;SDS011;14241;49.260;10.496;2024-01-06T08:36:06;22.73;;;12.80;;
26600;SDS011;14241;49.260;10.496;2024-01-06T08:38:32;20.73;;;13.85;;
26600;SDS011;14241;49.260;10.496;2024-01-06T08:40:57;17.13;;;12.40;;
26600;SDS011;14241;49.260;10.496;2024-01-06T08:43:22;16.58;;;12.43;;
26600;SDS011;14241;49.260;10.496;2024-01-06T08:45:47;19.13;;;12.70;;
26600;SDS011;14241;49.260;10.496;2024-01-06T08:48:13;18.38;;;13.32;;
26600;SDS011;14241;49.260;10.496;2024-01-06T08:50:38;16.70;;;12.60;;
26600;SDS011;14241;49.260;10.496;2024-01-06T08:53:04;17.08;;;12.98;;
26600;SDS011;14241;49.260;10.496;2024-01-06T08:55:30;20.73;;;12.52;;
26600;SDS011;14241;49.260;10.496;2024-01-06T08:57:55;18.75;;;13.00;;
26600;SDS011;14241;49.260;10.496;2024-01-06T09:00:20;22.15;;;12.55;;
26600;SDS011;14241;49.260;10.496;2024-01-06T09:02:46;19.27;;;12.70;;
26600;SDS011;14241;49.260;10.496;2024-01-06T09:05:11;16.90;;;12.25;;
26600;SDS011;14241;49.260;10.496;2024-01-06T09:07:36;16.63;;;11.48;;
26600;SDS011;14241;49.260;10.496;2024-01-06T09:10:02;18.63;;;11.30;;
26600;SDS011;14241;49.260;10.496;2024-01-06T09:12:27;17.02;;;11.95;;
26600;SDS011;14241;49.260;10.496;2024-01-06T09:14:54;21.55;;;12.90;;
26600;SDS011;14241;49.260;10.496;2024-01-06T09:17:20;16.70;;;12.25;;
26600;SDS011;14241;49.260;10.496;2024-01-06T09:19:45;18.08;;;11.93;;
26600;SDS011;14241;49.260;10.496;2024-01-06T09:22:11;16.10;;;12.43;;
26600;SDS011;14241;49.260;10.496;2024-01-06T09:24:36;17.88;;;13.60;;
26600;SDS011;14241;49.260;10.496;2024-01-06T09:27:01;15.82;;;13.73;;
26600;SDS011;14241;49.260;10.496;2024-01-06T09:29:26;17.25;;;14.27;;
26600;SDS011;14241;49.260;10.496;2024-01-06T09:31:52;27.80;;;14.27;;
26600;SDS011;14241;49.260;10.496;2024-01-06T09:34:17;19.33;;;13.85;;
26600;SDS011;14241;49.260;10.496;2024-01-06T09:36:42;18.08;;;13.75;;
26600;SDS011;14241;49.260;10.496;2024-01-06T09:39:08;18.90;;;13.32;;
26600;SDS011;14241;49.260;10.496;2024-01-06T09:41:33;16.08;;;12.23;;
26600;SDS011;14241;49.260;10.496;2024-01-06T09:43:58;16.25;;;12.48;;
26600;SDS011;14241;49.260;10.496;2024-01-06T09:46:25;13.43;;;11.27;;
26600;SDS011;14241;49.260;10.496;2024-01-06T09:48:54;18.63;;;11.90;;
26600;SDS011;14241;49.260;10.496;2024-01-06T09:51:20;14.05;;;11.45;;
26600;SDS011;14241;49.260;10.496;2024-01-06T09:53:49;16.52;;;11.52;;
26600;SDS011;14241;49.260;10.496;2024-01-06T09:56:17;11.52;;;10.40;;
26600;SDS011;14241;49.260;10.496;2024-01-06T09:58:43;13.70;;;10.27;;
26600;SDS011;14241;49.260;10.496;2024-01-06T10:01:09;11.80;;;10.55;;
26600;SDS011;14241;49.260;10.496;2024-01-06T10:03:36;14.88;;;10.00;;
26600;SDS011;14241;49.260;10.496;2024-01-06T10:06:01;14.88;;;9.43;;
26600;SDS011;14241;49.260;10.496;2024-01-06T10:08:31;12.88;;;8.68;;
26600;SDS011;14241;49.260;10.496;2024-01-06T10:10:59;12.55;;;8.60;;
26600;SDS011;14241;49.260;10.496;2024-01-06T10:13:24;10.98;;;8.50;;
26600;SDS011;14241;49.260;10.496;2024-01-06T10:15:50;12.07;;;8.52;;
26600;SDS011;14241;49.260;10.496;2024-01-06T10:18:15;13.20;;;9.15;;
26600;SDS011;14241;49.260;10.496;2024-01-06T10:20:41;9.45;;;8.38;;
26600;SDS011;14241;49.260;10.496;2024-01-06T10:23:06;10.75;;;8.05;;
26600;SDS011;14241;49.260;10.496;2024-01-06T10:25:31;13.60;;;8.30;;
26600;SDS011;14241;49.260;10.496;2024-01-06T10:27:57;12.27;;;8.15;;
26600;SDS011;14241;49.260;10.496;2024-01-06T10:30:25;13.40;;;7.72;;
26600;SDS011;14241;49.260;10.496;2024-01-06T10:32:50;10.45;;;8.05;;
26600;SDS011;14241;49.260;10.496;2024-01-06T10:35:17;10.13;;;8.55;;
26600;SDS011;14241;49.260;10.496;2024-01-06T10:37:42;9.15;;;7.65;;
26600;SDS011;14241;49.260;10.496;2024-01-06T10:40:09;12.05;;;7.97;;
26600;SDS011;14241;49.260;10.496;2024-01-06T10:42:34;12.55;;;8.55;;
26600;SDS011;14241;49.260;10.496;2024-01-06T10:45:01;8.88;;;7.65;;
26600;SDS011;14241;49.260;10.496;2024-01-06T10:47:27;11.93;;;7.47;;
26600;SDS011;14241;49.260;10.496;2024-01-06T10:49:56;12.52;;;8.07;;
26600;SDS011;14241;49.260;10.496;2024-01-06T10:52:23;12.80;;;8.25;;
26600;SDS011;14241;49.260;10.496;2024-01-06T10:54:49;12.25;;;7.90;;
26600;SDS011;14241;49.260;10.496;2024-01-06T10:57:16;9.57;;;7.90;;
26600;SDS011;14241;49.260;10.496;2024-01-06T10:59:43;10.55;;;7.97;;
26600;SDS011;14241;49.260;10.496;2024-01-06T11:02:10;10.75;;;8.25;;
26600;SDS011;14241;49.260;10.496;2024-01-06T11:04:37;10.45;;;7.60;;
26600;SDS011;14241;49.260;10.496;2024-01-06T11:07:02;11.52;;;8.18;;
26600;SDS011;14241;49.260;10.496;2024-01-06T11:09:29;12.23;;;7.68;;
26600;SDS011;14241;49.260;10.496;2024-01-06T11:11:56;12.25;;;7.15;;
26600;SDS011;14241;49.260;10.496;2024-01-06T11:16:48;10.63;;;8.15;;
26600;SDS011;14241;49.260;10.496;2024-01-06T11:21:57;13.13;;;8.10;;
26600;SDS011;14241;49.260;10.496;2024-01-06T11:24:43;12.48;;;7.60;;
26600;SDS011;14241;49.260;10.496;2024-01-06T11:27:08;13.77;;;7.03;;
26600;SDS011;14241;49.260;10.496;2024-01-06T11:29:43;9.88;;;6.80;;
26600;SDS011;14241;49.260;10.496;2024-01-06T11:32:17;8.20;;;7.18;;
26600;SDS011;14241;49.260;10.496;2024-01-06T11:34:49;8.88;;;6.65;;
26600;SDS011;14241;49.260;10.496;2024-01-06T11:37:16;11.25;;;7.35;;
26600;SDS011;14241;49.260;10.496;2024-01-06T11:39:42;10.82;;;6.85;;
26600;SDS011;14241;49.260;10.496;2024-01-06T11:42:11;9.68;;;6.88;;
26600;SDS011;14241;49.260;10.496;2024-01-06T11:44:37;7.82;;;6.57;;
26600;SDS011;14241;49.260;10.496;2024-01-06T11:47:03;8.52;;;7.00;;
26600;SDS011;14241;49.260;10.496;2024-01-06T11:49:29;9.05;;;6.68;;
26600;SDS011;14241;49.260;10.496;2024-01-06T11:51:54;8.07;;;6.90;;
26600;SDS011;14241;49.260;10.496;2024-01-06T11:54:21;11.45;;;6.80;;
26600;SDS011;14241;49.260;10.496;2024-01-06T11:56:46;10.20;;;6.88;;
26600;SDS011;14241;49.260;10.496;2024-01-06T11:59:11;10.05;;;6.72;;
26600;SDS011;14241;49.260;10.496;2024-01-06T12:01:37;10.77;;;6.80;;
26600;SDS011;14241;49.260;10.496;2024-01-06T12:04:03;9.77;;;6.70;;
26600;SDS011;14241;49.260;10.496;2024-01-06T12:06:30;10.18;;;6.82;;
26600;SDS011;14241;49.260;10.496;2024-01-06T12:09:05;8.82;;;6.68;;
26600;SDS011;14241;49.260;10.496;2024-01-06T12:11:30;7.90;;;6.30;;
26600;SDS011;14241;49.260;10.496;2024-01-06T12:13:56;8.07;;;6.55;;
26600;SDS011;14241;49.260;10.496;2024-01-06T12:16:21;8.80;;;6.60;;
26600;SDS011;14241;49.260;10.496;2024-01-06T12:18:47;9.32;;;6.75;;
26600;SDS011;14241;49.260;10.496;2024-01-06T12:21:12;6.93;;;6.22;;
26600;SDS011;14241;49.260;10.496;2024-01-06T12:23:37;9.45;;;7.00;;
26600;SDS011;14241;49.260;10.496;2024-01-06T12:26:03;7.72;;;6.68;;
26600;SDS011;14241;49.260;10.496;2024-01-06T12:28:29;7.90;;;6.40;;
26600;SDS011;14241;49.260;10.496;2024-01-06T12:30:54;7.15;;;6.45;;
26600;SDS011;14241;49.260;10.496;2024-01-06T12:33:19;9.48;;;6.93;;
26600;SDS011;14241;49.260;10.496;2024-01-06T12:35:45;10.40;;;7.13;;
26600;SDS011;14241;49.260;10.496;2024-01-06T12:38:10;8.27;;;6.38;;
26600;SDS011;14241;49.260;10.496;2024-01-06T12:40:36;7.65;;;6.78;;
26600;SDS011;14241;49.260;10.496;2024-01-06T12:43:03;7.03;;;6.32;;
26600;SDS011;14241;49.260;10.496;2024-01-06T12:45:28;7.80;;;6.15;;
26600;SDS011;14241;49.260;10.496;2024-01-06T12:47:54;7.88;;;7.13;;
26600;SDS011;14241;49.260;10.496;2024-01-06T12:50:19;6.97;;;5.95;;
26600;SDS011;14241;49.260;10.496;2024-01-06T12:52:44;7.97;;;6.15;;
26600;SDS011;14241;49.260;10.496;2024-01-06T12:55:11;7.43;;;6.45;;
26600;SDS011;14241;49.260;10.496;2024-01-06T12:57:36;10.35;;;6.18;;
26600;SDS011;14241;49.260;10.496;2024-01-06T13:00:01;8.30;;;5.90;;
26600;SDS011;14241;49.260;10.496;2024-01-06T13:02:27;8.90;;;6.40;;
26600;SDS011;14241;49.260;10.496;2024-01-06T13:04:52;7.75;;;7.00;;
26600;SDS011;14241;49.260;10.496;2024-01-06T13:07:17;8.30;;;6.88;;
26600;SDS011;14241;49.260;10.496;2024-01-06T13:09:43;9.88;;;7.05;;
26600;SDS011;14241;49.260;10.496;2024-01-06T13:12:09;8.23;;;7.00;;
26600;SDS011;14241;49.260;10.496;2024-01-06T13:14:35;11.77;;;7.53;;
26600;SDS011;14241;49.260;10.496;2024-01-06T13:17:00;10.05;;;7.20;;
26600;SDS011;14241;49.260;10.496;2024-01-06T13:19:26;8.52;;;7.15;;
26600;SDS011;14241;49.260;10.496;2024-01-06T13:21:52;10.88;;;7.18;;
26600;SDS011;14241;49.260;10.496;2024-01-06T13:24:17;7.97;;;7.15;;
26600;SDS011;14241;49.260;10.496;2024-01-06T13:26:43;9.25;;;6.90;;
26600;SDS011;14241;49.260;10.496;2024-01-06T13:29:08;8.88;;;7.43;;
26600;SDS011;14241;49.260;10.496;2024-01-06T13:31:33;15.93;;;7.28;;
26600;SDS011;14241;49.260;10.496;2024-01-06T13:33:59;8.68;;;6.80;;
26600;SDS011;14241;49.260;10.496;2024-01-06T13:36:24;8.38;;;7.00;;
26600;SDS011;14241;49.260;10.496;2024-01-06T13:38:49;8.23;;;6.82;;
26600;SDS011;14241;49.260;10.496;2024-01-06T13:41:15;11.45;;;6.97;;
26600;SDS011;14241;49.260;10.496;2024-01-06T13:43:40;7.68;;;6.10;;
26600;SDS011;14241;49.260;10.496;2024-01-06T13:46:05;8.60;;;6.57;;
26600;SDS011;14241;49.260;10.496;2024-01-06T13:48:31;10.05;;;6.63;;
26600;SDS011;14241;49.260;10.496;2024-01-06T13:50:57;7.30;;;6.18;;
26600;SDS011;14241;49.260;10.496;2024-01-06T13:53:22;8.00;;;6.78;;
26600;SDS011;14241;49.260;10.496;2024-01-06T13:55:47;10.18;;;6.75;;
26600;SDS011;14241;49.260;10.496;2024-01-06T13:58:12;8.77;;;6.80;;
26600;SDS011;14241;49.260;10.496;2024-01-06T14:00:38;8.07;;;6.50;;
26600;SDS011;14241;49.260;10.496;2024-01-06T14:03:03;7.78;;;6.85;;
26600;SDS011;14241;49.260;10.496;2024-01-06T14:05:29;9.73;;;6.50;;
26600;SDS011;14241;49.260;10.496;2024-01-06T14:07:55;9.32;;;7.03;;
26600;SDS011;14241;49.260;10.496;2024-01-06T14:10:20;9.77;;;7.13;;
26600;SDS011;14241;49.260;10.496;2024-01-06T14:12:46;8.30;;;6.95;;
26600;SDS011;14241;49.260;10.496;2024-01-06T14:15:11;8.13;;;6.53;;
26600;SDS011;14241;49.260;10.496;2024-01-06T14:17:37;14.85;;;13.32;;